Adner, Louisiana
Current Conditions -  °F | °C
As of 3:58 AM on Thursday 23 Oct 2014 (Local Time) from KBAD Reporting Station
Broken Clouds Broken Clouds  
Wind Chill: 56°   Ceiling: 18000
Heat Index: 56°   Visibility: 10mi
Dew Point: 47°   Wind: 5mph
Humidity: 72%   Direction: 130°SE
Pressure: 30.13"   Gusts: NA
Location:  32.5391°N, 93.5257°W
Report Text: KBAD 230858Z AUTO 13004KT 10SM BKN180 13/08 A3013 RMK AO2 SLP205 T01310081 58002
Loading
Personal Weather Stations






























Interactive Weather Map
Tropical Storm Tracking
New forecast layout! Learn more

10-Day Weather Forecast

Advertisements
Track Severe Weather on mobile